Nova Marilandia, Brazil
Current Conditions -  °F | °C
As of 4:00 PM on Sunday 21 Dec 2014 (Local Time) from SBCY Reporting Station
Broken Clouds Broken Clouds  
Wind Chill: 82°   Ceiling: 2000
Heat Index: 88°   Visibility: 6mi
Dew Point: 73°   Wind: 9mph
Humidity: 74%   Direction: 20°NNE
Pressure: 29.77"   Gusts: NA
Location:  14.36°S, 56.97°W
Report Text: SBCY 211900Z 02008KT 9999 BKN020 FEW025TCU 28/23 Q1008 RETS
Loading
Personal Weather Stations






























Interactive Weather Map New forecast layout! Learn more

10-Day Weather Forecast

Advertisements
Track Severe Weather on mobile